createdAt,value
2018-07-14T00:00:16.466Z,16.74
2018-07-14T00:01:16.564Z,16.74
2018-07-14T00:02:16.838Z,16.74
2018-07-14T00:03:17.108Z,16.76
2018-07-14T00:04:16.393Z,16.75
2018-07-14T00:05:16.710Z,16.75
2018-07-14T00:06:16.982Z,16.67
2018-07-14T00:07:16.280Z,16.71
2018-07-14T00:08:16.591Z,16.72
2018-07-14T00:09:16.860Z,16.69
2018-07-14T00:10:17.134Z,16.71
2018-07-14T00:11:17.180Z,16.75
2018-07-14T00:12:16.448Z,16.72
2018-07-14T00:13:16.702Z,16.72
2018-07-14T00:14:16.962Z,16.76
2018-07-14T00:15:16.234Z,16.75
2018-07-14T00:16:16.505Z,16.76
2018-07-14T00:17:16.762Z,16.79
2018-07-14T00:18:17.023Z,16.79
2018-07-14T00:19:16.292Z,16.82
2018-07-14T00:20:16.556Z,16.84
2018-07-14T00:21:16.594Z,16.84
2018-07-14T00:22:16.858Z,16.84
2018-07-14T00:23:17.119Z,16.84
2018-07-14T00:24:16.449Z,16.86
2018-07-14T00:25:16.769Z,16.90
2018-07-14T00:26:17.026Z,16.90
2018-07-14T00:27:16.279Z,16.93
2018-07-14T00:28:16.544Z,16.98
2018-07-14T00:29:16.806Z,16.95
2018-07-14T00:30:17.063Z,16.93
2018-07-14T00:31:17.381Z,16.83
2018-07-14T00:32:16.638Z,16.82
2018-07-14T00:33:16.913Z,16.89
2018-07-14T00:34:17.168Z,16.87
2018-07-14T00:35:16.434Z,16.84
2018-07-14T00:36:16.689Z,16.87
2018-07-14T00:37:16.952Z,16.79
2018-07-14T00:38:16.209Z,16.78
2018-07-14T00:39:16.470Z,16.75
2018-07-14T00:40:16.744Z,16.75
2018-07-14T00:41:16.793Z,16.74
2018-07-14T00:42:17.050Z,16.72
2018-07-14T00:43:16.315Z,16.72
2018-07-14T00:44:16.574Z,16.74
2018-07-14T00:45:16.844Z,16.84
2018-07-14T00:46:17.116Z,16.83
2018-07-14T00:47:16.374Z,16.78
2018-07-14T00:48:16.631Z,16.76
2018-07-14T00:49:16.890Z,16.76
2018-07-14T00:50:17.153Z,16.75
2018-07-14T00:51:17.199Z,16.64
2018-07-14T00:52:16.452Z,16.58
2018-07-14T00:53:16.714Z,16.58
2018-07-14T00:54:16.979Z,16.64
2018-07-14T00:55:16.239Z,16.64
2018-07-14T00:56:16.505Z,16.62
2018-07-14T00:57:16.769Z,16.56
2018-07-14T00:58:17.033Z,16.49
2018-07-14T00:59:16.303Z,16.47
2018-07-14T01:00:16.581Z,16.37
2018-07-14T01:01:16.611Z,16.36
2018-07-14T01:02:16.873Z,16.51
2018-07-14T01:03:17.131Z,16.54
2018-07-14T01:04:16.401Z,16.56
2018-07-14T01:05:16.661Z,16.43
2018-07-14T01:06:16.932Z,16.40
2018-07-14T01:07:17.190Z,16.35
2018-07-14T01:08:16.457Z,16.32
2018-07-14T01:09:16.730Z,16.33
2018-07-14T01:10:16.995Z,16.35
2018-07-14T01:11:17.033Z,16.32
2018-07-14T01:12:16.608Z,16.29
2018-07-14T01:13:16.866Z,16.37
2018-07-14T01:14:17.132Z,16.65
2018-07-14T01:15:16.400Z,16.53
2018-07-14T01:16:16.654Z,16.64
2018-07-14T01:17:16.909Z,16.51
2018-07-14T01:18:16.639Z,16.57
2018-07-14T01:19:16.901Z,16.49
2018-07-14T01:20:17.167Z,16.43
2018-07-14T01:21:16.211Z,16.39
2018-07-14T01:22:16.480Z,16.26
2018-07-14T01:23:16.737Z,16.18
2018-07-14T01:24:16.998Z,16.17
2018-07-14T01:25:16.249Z,16.00
2018-07-14T01:26:16.513Z,15.92
2018-07-14T01:27:16.770Z,15.91
2018-07-14T01:28:17.029Z,15.84
2018-07-14T01:29:16.297Z,15.86
2018-07-14T01:30:16.561Z,15.81
2018-07-14T01:31:16.614Z,15.77
2018-07-14T01:32:16.874Z,15.79
2018-07-14T01:33:17.134Z,15.79
2018-07-14T01:34:16.388Z,15.81
2018-07-14T01:35:16.652Z,15.79
2018-07-14T01:36:16.906Z,15.60
2018-07-14T01:37:17.181Z,15.54
2018-07-14T01:38:16.448Z,15.48
2018-07-14T01:39:16.699Z,15.48
2018-07-14T01:40:16.966Z,15.43
2018-07-14T01:41:16.987Z,15.38
2018-07-14T01:42:16.249Z,15.38
2018-07-14T01:43:16.506Z,15.40
2018-07-14T01:44:16.764Z,15.38
2018-07-14T01:45:17.021Z,15.41
2018-07-14T01:46:16.278Z,15.41
2018-07-14T01:47:16.544Z,15.41
2018-07-14T01:48:16.814Z,15.41
2018-07-14T01:49:17.082Z,15.40
2018-07-14T01:50:16.362Z,15.40
2018-07-14T01:51:16.397Z,15.40
2018-07-14T01:52:16.655Z,15.38
2018-07-14T01:53:16.915Z,15.40
2018-07-14T01:54:17.178Z,15.37
2018-07-14T01:55:16.436Z,15.37
2018-07-14T01:56:16.709Z,15.43
2018-07-14T01:57:16.963Z,15.43
2018-07-14T01:58:16.225Z,15.44
2018-07-14T01:59:16.495Z,15.38
2018-07-14T02:00:16.796Z,15.40
2018-07-14T02:01:16.826Z,15.40
2018-07-14T02:02:17.092Z,15.40
2018-07-14T02:03:16.370Z,15.41
2018-07-14T02:04:16.637Z,15.41
2018-07-14T02:05:16.913Z,15.41
2018-07-14T02:06:17.176Z,15.45
2018-07-14T02:07:16.440Z,15.44
2018-07-14T02:08:16.701Z,15.43
2018-07-14T02:09:16.954Z,15.43
2018-07-14T02:10:16.233Z,15.38
2018-07-14T02:11:16.271Z,15.36
2018-07-14T02:12:16.537Z,15.34
2018-07-14T02:13:16.829Z,15.33
2018-07-14T02:14:17.104Z,15.34
2018-07-14T02:15:16.368Z,15.36
2018-07-14T02:16:16.623Z,15.37
2018-07-14T02:17:16.884Z,15.37
2018-07-14T02:18:17.149Z,15.37
2018-07-14T02:19:16.411Z,15.32
2018-07-14T02:20:16.683Z,15.30
2018-07-14T02:21:16.709Z,15.32
2018-07-14T02:22:16.970Z,15.45
2018-07-14T02:23:16.232Z,15.45
2018-07-14T02:24:16.485Z,15.45
2018-07-14T02:25:16.745Z,15.40
2018-07-14T02:26:17.001Z,15.52
2018-07-14T02:27:16.256Z,15.54
2018-07-14T02:28:16.523Z,15.48
2018-07-14T02:29:16.783Z,15.48
2018-07-14T02:30:17.049Z,15.44
2018-07-14T02:31:17.107Z,15.41
2018-07-14T02:32:16.379Z,15.40
2018-07-14T02:33:16.642Z,15.40
2018-07-14T02:34:16.902Z,15.48
2018-07-14T02:35:17.164Z,15.40
2018-07-14T02:36:16.434Z,15.43
2018-07-14T02:37:16.709Z,15.40
2018-07-14T02:38:16.972Z,15.47
2018-07-14T02:39:16.240Z,15.41
2018-07-14T02:40:16.513Z,15.44
2018-07-14T02:41:16.553Z,15.40
2018-07-14T02:42:16.821Z,15.33
2018-07-14T02:43:17.124Z,15.34
2018-07-14T02:44:16.397Z,15.30
2018-07-14T02:45:16.671Z,15.23
2018-07-14T02:46:16.939Z,15.23
2018-07-14T02:47:16.206Z,15.18
2018-07-14T02:48:16.471Z,15.13
2018-07-14T02:49:16.734Z,15.11
2018-07-14T02:50:17.007Z,15.09
2018-07-14T02:51:17.034Z,15.04
2018-07-14T02:52:16.299Z,15.04
2018-07-14T02:53:17.033Z,15.04
2018-07-14T02:54:16.292Z,15.04
2018-07-14T02:55:16.557Z,15.05
2018-07-14T02:56:16.828Z,15.04
2018-07-14T02:57:17.086Z,15.04
2018-07-14T02:58:16.348Z,15.05
2018-07-14T02:59:16.617Z,15.13
2018-07-14T03:00:16.882Z,15.13
2018-07-14T03:01:16.933Z,15.13
2018-07-14T03:02:17.193Z,15.13
2018-07-14T03:03:16.465Z,15.11
2018-07-14T03:04:16.726Z,15.09
2018-07-14T03:05:17.000Z,15.09
2018-07-14T03:06:16.271Z,15.09
2018-07-14T03:07:16.545Z,15.11
2018-07-14T03:08:16.816Z,15.09
2018-07-14T03:09:17.079Z,15.08
2018-07-14T03:10:16.359Z,15.11
2018-07-14T03:11:16.394Z,15.11
2018-07-14T03:12:16.654Z,15.09
2018-07-14T03:13:16.930Z,15.08
2018-07-14T03:14:17.198Z,15.12
2018-07-14T03:15:16.460Z,15.19
2018-07-14T03:16:16.732Z,15.16
2018-07-14T03:17:17.012Z,15.15
2018-07-14T03:18:16.269Z,15.15
2018-07-14T03:19:16.564Z,15.19
2018-07-14T03:20:16.931Z,15.20
2018-07-14T03:21:16.952Z,15.26
2018-07-14T03:22:16.216Z,15.27
2018-07-14T03:23:16.480Z,15.23
2018-07-14T03:24:16.745Z,15.22
2018-07-14T03:25:17.011Z,15.22
2018-07-14T03:26:16.283Z,15.18
2018-07-14T03:27:16.548Z,15.13
2018-07-14T03:28:16.806Z,15.12
2018-07-14T03:29:17.063Z,15.08
2018-07-14T03:30:16.330Z,15.13
2018-07-14T03:31:16.380Z,15.11
2018-07-14T03:32:16.642Z,15.09
2018-07-14T03:33:16.981Z,15.09
2018-07-14T03:34:16.413Z,15.11
2018-07-14T03:35:16.675Z,15.09
2018-07-14T03:36:16.939Z,15.11
2018-07-14T03:37:17.204Z,15.09
2018-07-14T03:38:16.467Z,15.05
2018-07-14T03:39:16.724Z,15.04
2018-07-14T03:40:16.986Z,15.04
2018-07-14T03:41:17.033Z,15.04
2018-07-14T03:42:16.314Z,15.05
2018-07-14T03:43:16.574Z,15.06
2018-07-14T03:44:16.831Z,15.02
2018-07-14T03:45:17.083Z,15.04
2018-07-14T03:46:16.348Z,15.05
2018-07-14T03:47:16.612Z,15.06
2018-07-14T03:48:16.875Z,15.06
2018-07-14T03:49:17.137Z,15.05
2018-07-14T03:50:16.398Z,15.05
2018-07-14T03:51:16.443Z,15.04
2018-07-14T03:52:16.707Z,15.02
2018-07-14T03:53:16.959Z,15.01
2018-07-14T03:54:16.213Z,15.01
2018-07-14T03:55:16.478Z,15.05
2018-07-14T03:56:16.752Z,15.06
2018-07-14T03:57:17.008Z,15.06
2018-07-14T03:58:16.278Z,15.09
2018-07-14T03:59:16.534Z,15.08
2018-07-14T04:00:16.887Z,15.06
2018-07-14T04:01:16.893Z,15.06
2018-07-14T04:02:17.151Z,15.09
2018-07-14T04:03:16.408Z,15.08
2018-07-14T04:04:16.670Z,15.05
2018-07-14T04:05:16.922Z,15.08
2018-07-14T04:06:17.181Z,15.04
2018-07-14T04:07:16.449Z,15.04
2018-07-14T04:08:16.707Z,15.04
2018-07-14T04:09:16.978Z,15.06
2018-07-14T04:10:16.249Z,15.08
2018-07-14T04:11:16.305Z,15.08
2018-07-14T04:12:16.574Z,15.06
2018-07-14T04:13:16.836Z,15.09
2018-07-14T04:14:17.090Z,15.13
2018-07-14T04:15:16.354Z,15.27
2018-07-14T04:16:16.618Z,15.27
2018-07-14T04:17:16.869Z,15.32
2018-07-14T04:18:17.135Z,15.41
2018-07-14T04:19:16.394Z,15.40
2018-07-14T04:20:16.651Z,15.41
2018-07-14T04:21:16.690Z,15.45
2018-07-14T04:22:16.972Z,15.45
2018-07-14T04:23:16.234Z,15.43
2018-07-14T04:24:16.514Z,15.50
2018-07-14T04:25:16.788Z,15.52
2018-07-14T04:26:17.068Z,15.41
2018-07-14T04:27:16.337Z,15.45
2018-07-14T04:28:16.602Z,15.45
2018-07-14T04:29:16.866Z,15.25
2018-07-14T04:30:17.146Z,15.27
2018-07-14T04:31:17.177Z,15.29
2018-07-14T04:32:16.439Z,15.32
2018-07-14T04:33:16.702Z,15.32
2018-07-14T04:34:16.961Z,15.32
2018-07-14T04:35:16.224Z,15.29
2018-07-14T04:36:16.476Z,15.40
2018-07-14T04:37:16.740Z,15.40
2018-07-14T04:38:16.998Z,15.25
2018-07-14T04:39:16.259Z,15.27
2018-07-14T04:40:16.533Z,15.30
2018-07-14T04:41:16.555Z,15.32
2018-07-14T04:42:16.857Z,15.32
2018-07-14T04:43:17.192Z,15.37
2018-07-14T04:44:16.459Z,15.37
2018-07-14T04:45:16.712Z,15.37
2018-07-14T04:46:16.963Z,15.44
2018-07-14T04:47:16.221Z,15.51
2018-07-14T04:48:16.475Z,15.44
2018-07-14T04:49:16.733Z,15.47
2018-07-14T04:50:17.000Z,15.48
2018-07-14T04:51:17.054Z,15.51
2018-07-14T04:52:16.314Z,15.65
2018-07-14T04:53:16.677Z,15.69
2018-07-14T04:54:17.055Z,15.62
2018-07-14T04:55:16.316Z,15.59
2018-07-14T04:56:16.587Z,15.57
2018-07-14T04:57:16.852Z,15.67
2018-07-14T04:58:17.135Z,15.79
2018-07-14T04:59:16.391Z,15.84
2018-07-14T05:00:16.659Z,15.78
2018-07-14T05:01:16.707Z,15.75
2018-07-14T05:02:16.970Z,15.84
2018-07-14T05:03:16.230Z,15.85
2018-07-14T05:04:16.493Z,15.96
2018-07-14T05:05:16.809Z,15.98
2018-07-14T05:06:17.090Z,16.07
2018-07-14T05:07:16.415Z,16.29
2018-07-14T05:08:16.675Z,16.29
2018-07-14T05:09:16.934Z,16.46
2018-07-14T05:10:17.202Z,16.36
2018-07-14T05:11:16.245Z,16.37
2018-07-14T05:12:16.508Z,16.74
2018-07-14T05:13:16.772Z,16.69
2018-07-14T05:14:17.030Z,16.83
2018-07-14T05:15:16.292Z,16.78
2018-07-14T05:16:16.549Z,16.89
2018-07-14T05:17:16.808Z,17.09
2018-07-14T05:18:17.068Z,17.23
2018-07-14T05:19:16.326Z,17.35
2018-07-14T05:20:16.596Z,17.60
2018-07-14T05:21:16.708Z,17.77
2018-07-14T05:22:17.014Z,17.66
2018-07-14T05:23:16.281Z,17.91
2018-07-14T05:24:16.542Z,17.96
2018-07-14T05:25:16.810Z,18.05
2018-07-14T05:26:17.384Z,18.19
2018-07-14T05:27:16.649Z,18.33
2018-07-14T05:28:16.914Z,18.33
2018-07-14T05:29:17.167Z,18.88
2018-07-14T05:30:16.433Z,19.06
2018-07-14T05:31:16.473Z,19.24
2018-07-14T05:32:16.751Z,19.52
2018-07-14T05:33:17.012Z,19.71
2018-07-14T05:34:16.278Z,19.71
2018-07-14T05:35:16.554Z,19.88
2018-07-14T05:36:16.836Z,19.97
2018-07-14T05:37:17.115Z,20.03
2018-07-14T05:38:16.379Z,20.03
2018-07-14T05:39:16.636Z,19.89
2018-07-14T05:40:16.908Z,19.99
2018-07-14T05:41:16.939Z,19.97
2018-07-14T05:42:16.211Z,19.96
2018-07-14T05:43:16.482Z,19.73
2018-07-14T05:44:16.744Z,20.00
2018-07-14T05:45:17.007Z,20.22
2018-07-14T05:46:16.271Z,20.25
2018-07-14T05:47:16.534Z,20.50
2018-07-14T05:48:16.796Z,20.57
2018-07-14T05:49:17.056Z,20.71
2018-07-14T05:50:16.325Z,20.87
2018-07-14T05:51:16.360Z,20.96
2018-07-14T05:52:16.622Z,20.98
2018-07-14T05:53:16.884Z,21.04
2018-07-14T05:54:17.142Z,21.16
2018-07-14T05:55:16.406Z,21.33
2018-07-14T05:56:16.670Z,21.33
2018-07-14T05:57:16.926Z,21.49
2018-07-14T05:58:16.188Z,21.51
2018-07-14T05:59:16.455Z,21.26
2018-07-14T06:00:16.738Z,20.98
2018-07-14T06:01:16.758Z,21.15
2018-07-14T06:02:17.023Z,21.18
2018-07-14T06:03:16.469Z,21.19
2018-07-14T06:04:16.738Z,21.29
2018-07-14T06:05:17.001Z,21.29
2018-07-14T06:06:16.265Z,21.38
2018-07-14T06:07:16.521Z,21.41
2018-07-14T06:08:16.785Z,21.59
2018-07-14T06:09:17.042Z,21.74
2018-07-14T06:10:16.314Z,21.87
2018-07-14T06:11:16.348Z,21.95
2018-07-14T06:12:16.609Z,22.07
2018-07-14T06:13:16.864Z,22.21
2018-07-14T06:14:17.171Z,22.06
2018-07-14T06:15:16.619Z,21.93
2018-07-14T06:16:16.876Z,21.89
2018-07-14T06:17:17.186Z,21.74
2018-07-14T06:18:16.614Z,21.96
2018-07-14T06:19:16.869Z,22.09
2018-07-14T06:20:17.133Z,22.34
2018-07-14T06:21:17.177Z,22.43
2018-07-14T06:22:16.447Z,22.47
2018-07-14T06:23:16.714Z,22.39
2018-07-14T06:24:16.978Z,22.21
2018-07-14T06:25:16.255Z,22.04
2018-07-14T06:26:16.518Z,22.43
2018-07-14T06:27:16.787Z,22.50
2018-07-14T06:28:17.050Z,22.73
2018-07-14T06:29:16.306Z,23.08
2018-07-14T06:30:16.596Z,23.20
2018-07-14T06:31:16.609Z,22.70
2018-07-14T06:32:16.868Z,22.52
2018-07-14T06:33:17.140Z,22.59
2018-07-14T06:34:16.397Z,22.63
2018-07-14T06:35:16.650Z,23.09
2018-07-14T06:36:16.913Z,23.29
2018-07-14T06:37:17.311Z,23.45
2018-07-14T06:38:16.599Z,23.87
2018-07-14T06:39:16.926Z,24.02
2018-07-14T06:40:17.201Z,24.25
2018-07-14T06:41:16.243Z,24.55
2018-07-14T06:42:16.508Z,24.29
2018-07-14T06:43:16.788Z,24.28
2018-07-14T06:44:17.047Z,24.60
2018-07-14T06:45:16.314Z,24.72
2018-07-14T06:46:16.570Z,24.92
2018-07-14T06:47:16.837Z,25.17
2018-07-14T06:48:17.109Z,25.17
2018-07-14T06:49:16.366Z,25.39
2018-07-14T06:50:16.693Z,25.59
2018-07-14T06:51:16.749Z,24.94
2018-07-14T06:52:17.013Z,25.80
2018-07-14T06:53:16.275Z,24.64
2018-07-14T06:54:16.812Z,24.45
2018-07-14T06:55:16.244Z,25.00
2018-07-14T06:56:16.509Z,25.64
2018-07-14T06:57:16.759Z,25.31
2018-07-14T06:58:17.012Z,25.51
2018-07-14T06:59:16.279Z,25.79
2018-07-14T07:00:16.558Z,26.38
2018-07-14T07:01:16.599Z,26.56
2018-07-14T07:02:16.856Z,25.80
2018-07-14T07:03:17.123Z,26.06
2018-07-14T07:04:16.489Z,25.88
2018-07-14T07:05:16.804Z,25.91
2018-07-14T07:06:17.062Z,26.17
2018-07-14T07:07:16.331Z,27.46
2018-07-14T07:08:16.592Z,27.81
2018-07-14T07:09:16.849Z,28.20
2018-07-14T07:10:17.117Z,28.02
2018-07-14T07:11:17.164Z,28.02
2018-07-14T07:12:16.425Z,27.03
2018-07-14T07:13:16.679Z,27.27
2018-07-14T07:14:16.949Z,27.39
2018-07-14T07:15:16.212Z,27.78
2018-07-14T07:16:16.477Z,27.85
2018-07-14T07:17:16.741Z,28.07
2018-07-14T07:18:16.999Z,27.97
2018-07-14T07:19:16.265Z,28.73
2018-07-14T07:20:16.533Z,29.15
2018-07-14T07:21:16.636Z,29.41
2018-07-14T07:22:16.940Z,28.41
2018-07-14T07:23:17.201Z,28.73
2018-07-14T07:24:16.462Z,28.23
2018-07-14T07:25:16.730Z,27.81
2018-07-14T07:26:16.986Z,27.60
2018-07-14T07:27:16.243Z,28.63
2018-07-14T07:28:16.505Z,29.36
2018-07-14T07:29:16.766Z,29.37
2018-07-14T07:30:17.036Z,29.89
2018-07-14T07:31:17.080Z,30.10
2018-07-14T07:32:16.337Z,30.27
2018-07-14T07:33:16.585Z,30.67
2018-07-14T07:34:16.844Z,30.70
2018-07-14T07:35:17.417Z,30.89
2018-07-14T07:36:16.686Z,31.10
2018-07-14T07:37:16.954Z,30.55
2018-07-14T07:38:16.215Z,30.60
2018-07-14T07:39:16.482Z,31.21
2018-07-14T07:40:16.751Z,30.46
2018-07-14T07:41:16.797Z,30.41
2018-07-14T07:42:17.065Z,31.64
2018-07-14T07:43:16.416Z,31.00
2018-07-14T07:44:16.708Z,30.21
2018-07-14T07:45:16.968Z,31.24
2018-07-14T07:46:16.232Z,31.47
2018-07-14T07:47:16.493Z,31.90
2018-07-14T07:48:16.749Z,31.52
2018-07-14T07:49:17.021Z,31.36
2018-07-14T07:50:16.292Z,31.43
2018-07-14T07:51:16.334Z,31.79
2018-07-14T07:52:16.597Z,31.53
2018-07-14T07:53:16.873Z,31.72
2018-07-14T07:54:17.133Z,32.22
2018-07-14T07:55:16.402Z,32.69
2018-07-14T07:56:16.662Z,32.73
2018-07-14T07:57:16.925Z,32.47
2018-07-14T07:58:17.178Z,30.53
2018-07-14T07:59:16.435Z,31.05
2018-07-14T08:00:16.719Z,31.53
2018-07-14T08:01:16.739Z,31.58
2018-07-14T08:02:17.018Z,32.23
2018-07-14T08:03:16.278Z,32.94
2018-07-14T08:04:16.536Z,33.34
2018-07-14T08:05:16.791Z,33.22
2018-07-14T08:06:17.057Z,33.65
2018-07-14T08:07:16.323Z,34.09
2018-07-14T08:08:16.581Z,34.33
2018-07-14T08:09:16.845Z,34.52
2018-07-14T08:10:17.602Z,34.16
2018-07-14T08:11:17.152Z,33.25
2018-07-14T08:12:16.413Z,32.95
2018-07-14T08:13:16.673Z,33.51
2018-07-14T08:14:16.933Z,33.45
2018-07-14T08:15:17.205Z,34.02
2018-07-14T08:16:16.459Z,34.30
2018-07-14T08:17:16.732Z,33.71
2018-07-14T08:18:17.004Z,32.44
2018-07-14T08:19:16.269Z,32.77
2018-07-14T08:20:16.546Z,32.65
2018-07-14T08:21:16.687Z,33.58
2018-07-14T08:22:16.950Z,33.97
2018-07-14T08:23:16.206Z,33.32
2018-07-14T08:24:16.460Z,34.55
2018-07-14T08:25:16.724Z,33.83
2018-07-14T08:26:16.981Z,34.76
2018-07-14T08:27:16.249Z,34.74
2018-07-14T08:28:16.522Z,34.41
2018-07-14T08:29:16.781Z,34.56
2018-07-14T08:30:17.045Z,34.77
2018-07-14T08:31:17.096Z,33.96
2018-07-14T08:32:16.374Z,33.96
2018-07-14T08:33:16.745Z,34.37
2018-07-14T08:34:17.009Z,34.13
2018-07-14T08:35:16.265Z,34.23
2018-07-14T08:36:16.528Z,33.05
2018-07-14T08:37:16.787Z,33.01
2018-07-14T08:38:17.051Z,32.94
2018-07-14T08:39:16.316Z,32.94
2018-07-14T08:40:16.580Z,32.61
2018-07-14T08:41:16.650Z,32.53
2018-07-14T08:42:16.913Z,32.40
2018-07-14T08:43:17.168Z,31.24
2018-07-14T08:44:16.427Z,31.47
2018-07-14T08:45:16.693Z,32.23
2018-07-14T08:46:16.950Z,32.83
2018-07-14T08:47:16.206Z,33.50
2018-07-14T08:48:16.468Z,31.93
2018-07-14T08:49:16.744Z,32.40
2018-07-14T08:50:17.012Z,33.37
2018-07-14T08:51:17.146Z,33.75
2018-07-14T08:52:16.489Z,33.62
2018-07-14T08:53:16.742Z,34.15
2018-07-14T08:54:17.013Z,34.61
2018-07-14T08:55:16.278Z,34.41
2018-07-14T08:56:16.531Z,34.41
2018-07-14T08:57:16.786Z,33.41
2018-07-14T08:58:17.147Z,33.71
2018-07-14T08:59:16.562Z,33.57
2018-07-14T09:00:16.833Z,33.07
2018-07-14T09:01:16.873Z,33.40
2018-07-14T09:02:17.133Z,33.73
2018-07-14T09:03:16.397Z,33.50
2018-07-14T09:04:16.652Z,32.18
2018-07-14T09:05:16.920Z,31.56
2018-07-14T09:06:17.179Z,32.23
2018-07-14T09:07:16.433Z,32.93
2018-07-14T09:08:16.685Z,33.29
2018-07-14T09:09:16.933Z,33.91
2018-07-14T09:10:17.204Z,34.54
2018-07-14T09:11:16.266Z,32.62
2018-07-14T09:12:16.530Z,33.89
2018-07-14T09:13:16.791Z,34.59
2018-07-14T09:14:17.060Z,34.90
2018-07-14T09:15:16.323Z,34.16
2018-07-14T09:16:16.592Z,34.45
2018-07-14T09:17:16.854Z,34.44
2018-07-14T09:18:17.131Z,34.49
2018-07-14T09:19:16.655Z,34.47
2018-07-14T09:20:16.937Z,34.98
2018-07-14T09:21:16.961Z,34.05
2018-07-14T09:22:16.222Z,34.56
2018-07-14T09:23:16.482Z,35.20
2018-07-14T09:24:16.739Z,35.13
2018-07-14T09:25:16.997Z,34.70
2018-07-14T09:26:16.261Z,35.23
2018-07-14T09:27:16.538Z,35.67
2018-07-14T09:28:16.795Z,35.43
2018-07-14T09:29:17.060Z,35.29
2018-07-14T09:30:16.328Z,35.98
2018-07-14T09:31:16.352Z,36.06
2018-07-14T09:32:16.616Z,36.33
2018-07-14T09:33:16.873Z,36.91
2018-07-14T09:34:17.145Z,35.99
2018-07-14T09:35:16.428Z,36.09
2018-07-14T09:36:16.685Z,35.77
2018-07-14T09:37:16.957Z,36.08
2018-07-14T09:38:16.218Z,36.21
2018-07-14T09:39:16.489Z,36.65
2018-07-14T09:40:16.761Z,36.63
2018-07-14T09:41:16.792Z,36.63
2018-07-14T09:42:17.054Z,35.66
2018-07-14T09:43:16.314Z,35.59
2018-07-14T09:44:16.577Z,35.31
2018-07-14T09:45:16.843Z,35.46
2018-07-14T09:46:17.116Z,35.89
2018-07-14T09:47:16.382Z,35.98
2018-07-14T09:48:16.630Z,35.88
2018-07-14T09:49:16.901Z,35.19
2018-07-14T09:50:17.458Z,35.78
2018-07-14T09:51:16.210Z,36.42
2018-07-14T09:52:16.471Z,35.99
2018-07-14T09:53:16.739Z,35.06
2018-07-14T09:54:16.997Z,34.66
2018-07-14T09:55:16.299Z,35.88
2018-07-14T09:56:16.620Z,36.31
2018-07-14T09:57:16.878Z,35.53
2018-07-14T09:58:17.133Z,35.53
2018-07-14T09:59:16.402Z,33.65
2018-07-14T10:00:16.683Z,35.52
2018-07-14T10:01:16.694Z,35.19
2018-07-14T10:02:16.967Z,34.15
2018-07-14T10:03:16.245Z,35.33
2018-07-14T10:04:16.710Z,35.49
2018-07-14T10:05:16.984Z,35.34
2018-07-14T10:06:16.303Z,35.26
2018-07-14T10:07:16.847Z,36.02
2018-07-14T10:08:17.111Z,35.40
2018-07-14T10:09:16.376Z,35.49
2018-07-14T10:10:16.642Z,34.86
2018-07-14T10:11:16.673Z,35.52
2018-07-14T10:12:16.931Z,34.65
2018-07-14T10:13:17.313Z,34.34
2018-07-14T10:14:16.775Z,34.40
2018-07-14T10:15:17.053Z,35.23
2018-07-14T10:16:16.316Z,35.91
2018-07-14T10:17:16.585Z,34.90
2018-07-14T10:18:17.013Z,35.59
2018-07-14T10:19:16.290Z,35.57
2018-07-14T10:20:16.561Z,35.95
2018-07-14T10:21:16.590Z,35.87
2018-07-14T10:22:16.880Z,36.21
2018-07-14T10:23:16.258Z,35.66
2018-07-14T10:24:16.512Z,34.83
2018-07-14T10:25:17.061Z,33.30
2018-07-14T10:26:16.913Z,33.84
2018-07-14T10:27:17.166Z,33.90
2018-07-14T10:28:16.434Z,34.56
2018-07-14T10:29:16.688Z,33.93
2018-07-14T10:30:16.947Z,34.33
2018-07-14T10:31:16.613Z,34.79
2018-07-14T10:32:16.861Z,34.31
2018-07-14T10:33:17.130Z,34.47
2018-07-14T10:34:16.389Z,34.48
2018-07-14T10:35:16.652Z,35.18
2018-07-14T10:36:16.915Z,35.43
2018-07-14T10:37:17.182Z,35.67
2018-07-14T10:38:16.435Z,35.34
2018-07-14T10:39:16.694Z,33.40
2018-07-14T10:40:16.963Z,34.24
2018-07-14T10:41:17.008Z,34.52
2018-07-14T10:42:16.386Z,35.29
2018-07-14T10:43:16.861Z,35.53
2018-07-14T10:44:17.129Z,35.67
2018-07-14T10:45:16.387Z,34.97
2018-07-14T10:46:16.653Z,34.87
2018-07-14T10:47:16.918Z,35.01
2018-07-14T10:48:17.224Z,35.76
2018-07-14T10:49:16.497Z,35.98
2018-07-14T10:50:16.780Z,36.53
2018-07-14T10:51:16.816Z,36.01
2018-07-14T10:52:17.343Z,35.66
2018-07-14T10:53:16.603Z,34.09
2018-07-14T10:54:16.863Z,34.38
2018-07-14T10:55:17.120Z,34.80
2018-07-14T10:56:16.381Z,34.86
2018-07-14T10:57:16.641Z,33.80
2018-07-14T10:58:17.025Z,33.83
2018-07-14T10:59:16.487Z,33.15
2018-07-14T11:00:16.753Z,33.44
2018-07-14T11:01:16.805Z,32.88
2018-07-14T11:02:17.072Z,33.79
2018-07-14T11:03:16.332Z,34.22
2018-07-14T11:04:16.602Z,34.06
2018-07-14T11:05:16.877Z,34.24
2018-07-14T11:06:17.132Z,34.59
2018-07-14T11:07:16.390Z,33.94
2018-07-14T11:08:16.653Z,33.71
2018-07-14T11:09:16.921Z,34.05
2018-07-14T11:10:17.195Z,34.35
2018-07-14T11:11:16.254Z,33.80
2018-07-14T11:12:16.528Z,34.10
2018-07-14T11:13:16.896Z,34.30
2018-07-14T11:14:17.158Z,32.94
2018-07-14T11:15:16.413Z,32.81
2018-07-14T11:16:16.672Z,31.92
2018-07-14T11:17:16.929Z,31.02
2018-07-14T11:18:17.197Z,31.19
2018-07-14T11:19:16.456Z,31.31
2018-07-14T11:20:16.726Z,31.21
2018-07-14T11:21:16.762Z,31.72
2018-07-14T11:22:17.024Z,32.28
2018-07-14T11:23:16.295Z,33.09
2018-07-14T11:24:16.562Z,33.23
2018-07-14T11:25:16.814Z,33.33
2018-07-14T11:26:17.073Z,33.41
2018-07-14T11:27:16.332Z,33.72
2018-07-14T11:28:16.600Z,33.94
2018-07-14T11:29:16.867Z,34.55
2018-07-14T11:30:17.221Z,34.31
2018-07-14T11:31:17.191Z,34.47
2018-07-14T11:32:16.455Z,33.96
2018-07-14T11:33:16.713Z,33.96
2018-07-14T11:34:16.972Z,33.77
2018-07-14T11:35:16.243Z,33.79
2018-07-14T11:36:16.506Z,33.84
2018-07-14T11:37:16.756Z,33.75
2018-07-14T11:38:17.030Z,33.69
2018-07-14T11:39:16.294Z,34.23
2018-07-14T11:40:16.556Z,34.48
2018-07-14T11:41:16.603Z,34.40
2018-07-14T11:42:16.876Z,33.37
2018-07-14T11:43:16.297Z,31.84
2018-07-14T11:44:16.566Z,32.47
2018-07-14T11:45:16.820Z,33.86
2018-07-14T11:46:17.072Z,33.48
2018-07-14T11:47:16.329Z,33.71
2018-07-14T11:48:16.591Z,33.87
2018-07-14T11:49:16.848Z,34.17
2018-07-14T11:50:17.131Z,33.83
2018-07-14T11:51:17.175Z,33.48
2018-07-14T11:52:16.436Z,33.15
2018-07-14T11:53:16.697Z,33.12
2018-07-14T11:54:17.032Z,33.44
2018-07-14T11:55:16.440Z,33.37
2018-07-14T11:56:16.699Z,32.50
2018-07-14T11:57:16.967Z,32.21
2018-07-14T11:58:16.231Z,32.55
2018-07-14T11:59:16.506Z,32.12
2018-07-14T12:00:16.781Z,31.61
2018-07-14T12:01:16.828Z,31.52
2018-07-14T12:02:17.149Z,31.43
2018-07-14T12:03:16.410Z,30.42
2018-07-14T12:04:16.663Z,29.92
2018-07-14T12:05:16.933Z,29.64
2018-07-14T12:06:16.200Z,30.05
2018-07-14T12:07:16.483Z,29.96
2018-07-14T12:08:16.827Z,29.71
2018-07-14T12:09:17.099Z,29.59
2018-07-14T12:10:16.379Z,29.40
2018-07-14T12:11:16.411Z,29.85
2018-07-14T12:12:16.678Z,29.99
2018-07-14T12:13:16.946Z,30.18
2018-07-14T12:14:16.252Z,30.13
2018-07-14T12:15:16.522Z,30.13
2018-07-14T12:16:16.779Z,30.20
2018-07-14T12:17:17.040Z,30.06
2018-07-14T12:18:16.298Z,29.88
2018-07-14T12:19:16.820Z,29.96
2018-07-14T12:20:16.402Z,30.07
2018-07-14T12:21:16.436Z,30.11
2018-07-14T12:22:16.797Z,29.65
2018-07-14T12:23:17.109Z,29.59
2018-07-14T12:24:16.365Z,29.68
2018-07-14T12:25:16.629Z,29.65
2018-07-14T12:26:16.893Z,29.51
2018-07-14T12:27:17.149Z,29.52
2018-07-14T12:28:16.412Z,29.75
2018-07-14T12:29:16.696Z,29.37
2018-07-14T12:30:17.060Z,29.09
2018-07-14T12:31:17.040Z,28.98
2018-07-14T12:32:16.299Z,29.14
2018-07-14T12:33:16.560Z,28.73
2018-07-14T12:34:16.818Z,28.39
2018-07-14T12:35:17.080Z,28.33
2018-07-14T12:36:16.342Z,28.51
2018-07-14T12:37:16.593Z,28.65
2018-07-14T12:38:16.854Z,28.77
2018-07-14T12:39:17.117Z,28.77
2018-07-14T12:40:16.385Z,28.63
2018-07-14T12:41:16.433Z,28.70
2018-07-14T12:42:16.683Z,28.73
2018-07-14T12:43:16.989Z,28.56
2018-07-14T12:44:16.289Z,28.65
2018-07-14T12:45:16.558Z,28.79
2018-07-14T12:46:16.819Z,28.73
2018-07-14T12:47:17.081Z,28.76
2018-07-14T12:48:16.354Z,28.79
2018-07-14T12:49:16.617Z,28.70
2018-07-14T12:50:16.893Z,28.65
2018-07-14T12:51:16.972Z,28.70
2018-07-14T12:52:16.231Z,28.61